createdAt,value
2022-10-03T00:01:37.718Z,10.10
2022-10-03T00:04:19.657Z,10.10
2022-10-03T00:07:02.179Z,10.10
2022-10-03T00:09:56.328Z,10.10
2022-10-03T00:12:47.317Z,10.10
2022-10-03T00:15:22.926Z,10.10
2022-10-03T00:18:02.227Z,10.10
2022-10-03T00:20:45.118Z,10.10
2022-10-03T00:23:22.470Z,10.10
2022-10-03T00:26:22.068Z,10.10
2022-10-03T00:28:58.898Z,10.10
2022-10-03T00:31:40.337Z,10.00
2022-10-03T00:34:19.542Z,10.00
2022-10-03T00:36:55.369Z,10.00
2022-10-03T00:39:40.173Z,9.90
2022-10-03T00:42:29.383Z,10.00
2022-10-03T00:45:35.810Z,10.00
2022-10-03T00:48:25.590Z,10.00
2022-10-03T00:51:06.494Z,10.00
2022-10-03T00:53:51.697Z,10.00
2022-10-03T00:56:48.119Z,10.00
2022-10-03T00:59:32.033Z,9.90
2022-10-03T01:02:18.121Z,9.90
2022-10-03T01:04:56.093Z,9.80
2022-10-03T01:07:43.633Z,9.80
2022-10-03T01:10:20.035Z,9.80
2022-10-03T01:13:13.990Z,9.80
2022-10-03T01:15:52.930Z,9.80
2022-10-03T01:18:33.227Z,9.80
2022-10-03T01:21:09.679Z,9.80
2022-10-03T01:24:06.981Z,9.70
2022-10-03T01:26:59.429Z,9.70
2022-10-03T01:29:59.708Z,9.70
2022-10-03T01:32:34.106Z,9.60
2022-10-03T01:35:22.379Z,9.60
2022-10-03T01:37:59.626Z,9.60
2022-10-03T01:40:32.890Z,9.60
2022-10-03T01:43:07.997Z,9.60
2022-10-03T01:45:45.422Z,9.60
2022-10-03T01:48:23.558Z,9.60
2022-10-03T01:51:00.842Z,9.60
2022-10-03T01:53:41.775Z,9.50
2022-10-03T01:56:16.865Z,9.50
2022-10-03T01:58:56.659Z,9.50
2022-10-03T02:01:32.587Z,9.50
2022-10-03T02:04:08.051Z,9.50
2022-10-03T02:06:45.724Z,9.50
2022-10-03T02:09:24.837Z,9.50
2022-10-03T02:12:05.539Z,9.50
2022-10-03T02:14:46.286Z,9.50
2022-10-03T02:17:26.035Z,9.50
2022-10-03T02:20:02.828Z,9.50
2022-10-03T02:22:36.022Z,9.50
2022-10-03T02:25:19.989Z,9.50
2022-10-03T02:28:19.359Z,9.50
2022-10-03T02:31:20.520Z,9.50
2022-10-03T02:34:25.688Z,9.50
2022-10-03T02:37:10.526Z,9.50
2022-10-03T02:40:11.237Z,9.40
2022-10-03T02:43:18.038Z,9.50
2022-10-03T02:46:05.581Z,9.40
2022-10-03T02:49:00.485Z,9.40
2022-10-03T02:52:00.995Z,9.40
2022-10-03T02:55:10.290Z,9.40
2022-10-03T02:58:12.149Z,9.40
2022-10-03T03:01:22.202Z,9.40
2022-10-03T03:04:14.441Z,9.40
2022-10-03T03:07:30.890Z,9.30
2022-10-03T03:10:31.194Z,9.40
2022-10-03T03:13:35.592Z,9.30
2022-10-03T03:16:44.190Z,9.40
2022-10-03T03:19:39.247Z,9.30
2022-10-03T03:22:25.324Z,9.30
2022-10-03T03:25:11.374Z,9.20
2022-10-03T03:27:53.895Z,9.30
2022-10-03T03:30:24.846Z,9.30
2022-10-03T03:33:11.248Z,9.20
2022-10-03T03:35:52.404Z,9.20
2022-10-03T03:38:31.197Z,9.20
2022-10-03T03:41:34.742Z,9.10
2022-10-03T03:44:32.297Z,9.10
2022-10-03T03:47:15.037Z,9.10
2022-10-03T03:50:08.442Z,9.20
2022-10-03T03:52:51.480Z,9.20
2022-10-03T03:55:40.675Z,9.30
2022-10-03T03:58:27.926Z,9.30
2022-10-03T04:01:24.290Z,9.20
2022-10-03T04:04:05.542Z,9.10
2022-10-03T04:06:47.877Z,9.10
2022-10-03T04:09:32.066Z,9.10
2022-10-03T04:12:10.188Z,9.10
2022-10-03T04:15:01.547Z,9.10
2022-10-03T04:18:00.321Z,9.10
2022-10-03T04:20:44.833Z,9.10
2022-10-03T04:23:25.958Z,9.10
2022-10-03T04:26:12.273Z,9.00
2022-10-03T04:28:55.308Z,9.10
2022-10-03T04:31:41.987Z,9.10
2022-10-03T04:34:26.140Z,9.10
2022-10-03T04:37:28.318Z,9.00
2022-10-03T04:40:18.747Z,9.00
2022-10-03T04:42:58.319Z,9.00
2022-10-03T04:45:59.807Z,9.00
2022-10-03T04:48:41.733Z,9.00
2022-10-03T04:51:20.193Z,9.00
2022-10-03T04:53:56.614Z,9.00
2022-10-03T04:57:15.473Z,9.00
2022-10-03T05:00:15.054Z,9.00
2022-10-03T05:02:51.864Z,9.00
2022-10-03T05:05:28.283Z,9.00
2022-10-03T05:08:13.357Z,9.00
2022-10-03T05:11:06.186Z,9.00
2022-10-03T05:13:50.206Z,9.10
2022-10-03T05:16:32.287Z,9.00
2022-10-03T05:19:22.578Z,9.00
2022-10-03T05:21:56.914Z,9.00
2022-10-03T05:24:34.457Z,9.10
2022-10-03T05:27:13.344Z,9.10
2022-10-03T05:29:46.342Z,9.20
2022-10-03T05:32:24.878Z,9.30
2022-10-03T05:35:06.836Z,9.30
2022-10-03T05:37:53.622Z,9.40
2022-10-03T05:40:25.243Z,9.20
2022-10-03T05:43:04.844Z,9.20
2022-10-03T05:45:41.221Z,9.20
2022-10-03T05:48:18.897Z,9.20
2022-10-03T05:51:17.617Z,9.20
2022-10-03T05:54:10.437Z,9.20
2022-10-03T05:57:02.254Z,9.20
2022-10-03T06:00:06.307Z,9.20
2022-10-03T06:02:55.246Z,9.30
2022-10-03T06:05:32.935Z,9.30
2022-10-03T06:08:32.141Z,9.30
2022-10-03T06:11:12.588Z,9.40
2022-10-03T06:14:02.068Z,9.50
2022-10-03T06:16:39.287Z,9.60
2022-10-03T06:19:17.571Z,9.60
2022-10-03T06:22:31.777Z,9.60
2022-10-03T06:25:44.273Z,9.70
2022-10-03T06:29:00.062Z,9.80
2022-10-03T06:31:57.473Z,9.80
2022-10-03T06:35:04.655Z,9.80
2022-10-03T06:37:58.567Z,9.80
2022-10-03T06:40:52.028Z,9.80
2022-10-03T06:43:50.903Z,9.80
2022-10-03T06:46:42.269Z,9.90
2022-10-03T06:49:42.878Z,10.00
2022-10-03T06:52:34.747Z,10.10
2022-10-03T06:55:48.801Z,10.30
2022-10-03T06:58:44.775Z,10.40
2022-10-03T07:01:48.383Z,10.50
2022-10-03T07:04:49.458Z,10.60
2022-10-03T07:08:06.075Z,10.60
2022-10-03T07:10:50.213Z,10.80
2022-10-03T07:13:50.773Z,11.00
2022-10-03T07:19:42.565Z,11.30
2022-10-03T07:23:02.768Z,11.40
2022-10-03T07:26:07.346Z,11.50
2022-10-03T07:29:05.063Z,11.70
2022-10-03T07:31:46.530Z,11.90
2022-10-03T07:34:34.257Z,11.80
2022-10-03T07:37:41.642Z,11.80
2022-10-03T07:40:40.995Z,11.80
2022-10-03T07:43:45.102Z,11.80
2022-10-03T07:46:54.507Z,12.00
2022-10-03T07:49:51.247Z,12.30
2022-10-03T07:52:57.395Z,12.40
2022-10-03T07:55:52.295Z,12.50
2022-10-03T07:58:39.179Z,12.50
2022-10-03T08:01:27.948Z,12.60
2022-10-03T08:04:36.656Z,12.50
2022-10-03T08:07:19.439Z,12.60
2022-10-03T08:10:10.971Z,12.40
2022-10-03T08:13:08.042Z,12.40
2022-10-03T08:16:01.349Z,12.60
2022-10-03T08:19:02.096Z,12.80
2022-10-03T08:21:48.772Z,12.80
2022-10-03T08:24:36.099Z,12.80
2022-10-03T08:27:27.538Z,12.90
2022-10-03T08:30:14.269Z,13.10
2022-10-03T08:33:18.721Z,13.20
2022-10-03T08:36:26.474Z,13.30
2022-10-03T08:39:11.515Z,13.50
2022-10-03T08:42:07.875Z,13.60
2022-10-03T08:45:01.827Z,13.80
2022-10-03T08:48:08.756Z,14.00
2022-10-03T08:51:04.799Z,14.20
2022-10-03T08:54:11.606Z,14.40
2022-10-03T08:56:57.752Z,14.40
2022-10-03T09:00:09.635Z,14.60
2022-10-03T09:03:20.483Z,14.50
2022-10-03T09:06:09.775Z,14.40
2022-10-03T09:09:06.554Z,14.60
2022-10-03T09:12:18.133Z,14.60
2022-10-03T09:15:01.634Z,14.60
2022-10-03T09:18:06.788Z,14.90
2022-10-03T09:21:14.131Z,14.90
2022-10-03T09:24:05.047Z,14.90
2022-10-03T09:27:04.534Z,15.00
2022-10-03T09:29:56.630Z,15.20
2022-10-03T09:32:49.774Z,15.40
2022-10-03T09:36:01.895Z,15.70
2022-10-03T09:39:14.746Z,15.70
2022-10-03T09:42:27.874Z,15.80
2022-10-03T09:45:30.087Z,15.90
2022-10-03T09:48:34.219Z,16.00
2022-10-03T09:51:20.150Z,15.90
2022-10-03T09:54:17.778Z,15.80
2022-10-03T09:57:07.238Z,16.10
2022-10-03T10:00:27.189Z,16.30
2022-10-03T10:03:19.269Z,16.60
2022-10-03T10:06:24.524Z,16.90
2022-10-03T10:09:38.042Z,17.30
2022-10-03T10:12:30.292Z,18.20
2022-10-03T10:15:19.942Z,18.50
2022-10-03T10:18:20.448Z,19.40
2022-10-03T10:21:26.895Z,20.10
2022-10-03T10:24:07.942Z,21.40
2022-10-03T10:27:18.169Z,22.70
2022-10-03T10:30:15.051Z,23.30
2022-10-03T10:33:24.198Z,23.60
2022-10-03T10:36:47.293Z,23.30
2022-10-03T10:39:48.812Z,23.30
2022-10-03T10:42:59.414Z,23.00
2022-10-03T10:46:13.232Z,23.50
2022-10-03T10:49:35.761Z,23.00
2022-10-03T10:52:36.147Z,22.10
2022-10-03T10:55:52.493Z,22.70
2022-10-03T10:58:59.114Z,22.10
2022-10-03T11:02:06.242Z,21.50
2022-10-03T11:05:29.513Z,20.80
2022-10-03T11:08:31.035Z,20.40
2022-10-03T11:11:29.525Z,20.30
2022-10-03T11:14:30.030Z,20.20
2022-10-03T11:17:40.302Z,19.70
2022-10-03T11:20:46.542Z,19.40
2022-10-03T11:23:43.813Z,19.30
2022-10-03T11:26:54.563Z,21.10
2022-10-03T11:30:04.990Z,21.70
2022-10-03T11:33:14.922Z,20.50
2022-10-03T11:36:19.975Z,19.10
2022-10-03T11:38:56.729Z,18.80
2022-10-03T11:41:40.285Z,18.50
2022-10-03T11:44:20.329Z,18.40
2022-10-03T11:47:27.594Z,18.30
2022-10-03T11:50:32.159Z,18.00
2022-10-03T11:53:16.113Z,17.80
2022-10-03T11:55:51.714Z,17.90
2022-10-03T11:58:52.576Z,17.90
2022-10-03T12:01:36.138Z,18.00
2022-10-03T12:04:15.653Z,18.10
2022-10-03T12:07:18.271Z,19.10
2022-10-03T12:09:57.022Z,20.20
2022-10-03T12:12:36.336Z,20.90
2022-10-03T12:15:19.710Z,21.00
2022-10-03T12:17:55.515Z,21.40
2022-10-03T12:20:31.224Z,22.20
2022-10-03T12:23:07.758Z,22.00
2022-10-03T12:25:38.909Z,22.20
2022-10-03T12:28:16.319Z,21.60
2022-10-03T12:30:49.728Z,20.40
2022-10-03T12:33:39.308Z,19.70
2022-10-03T12:36:15.310Z,19.50
2022-10-03T12:38:57.853Z,19.50
2022-10-03T12:41:57.000Z,19.30
2022-10-03T12:44:40.796Z,19.30
2022-10-03T12:47:44.073Z,19.50
2022-10-03T12:50:30.755Z,19.10
2022-10-03T12:53:16.182Z,19.10
2022-10-03T12:55:54.378Z,18.80
2022-10-03T12:58:32.032Z,18.80
2022-10-03T13:01:12.383Z,18.70
2022-10-03T13:03:52.174Z,18.70
2022-10-03T13:07:08.967Z,18.70
2022-10-03T13:10:02.900Z,18.60
2022-10-03T13:12:43.546Z,18.20
2022-10-03T13:15:42.990Z,18.20
2022-10-03T13:18:21.469Z,18.40
2022-10-03T13:20:58.077Z,18.80
2022-10-03T13:23:39.492Z,18.80
2022-10-03T13:26:18.421Z,18.90
2022-10-03T13:29:17.347Z,19.60
2022-10-03T13:32:01.331Z,19.40
2022-10-03T13:34:35.121Z,19.00
2022-10-03T13:37:09.889Z,19.00
2022-10-03T13:39:48.953Z,19.00
2022-10-03T13:42:22.038Z,19.10
2022-10-03T13:44:55.299Z,19.00
2022-10-03T13:47:44.592Z,18.90
2022-10-03T13:50:21.198Z,18.70
2022-10-03T13:52:54.625Z,19.00
2022-10-03T13:55:33.450Z,19.10
2022-10-03T13:58:20.180Z,19.00
2022-10-03T14:00:59.427Z,19.10
2022-10-03T14:03:34.686Z,19.20
2022-10-03T14:06:13.895Z,19.10
2022-10-03T14:09:26.783Z,19.10
2022-10-03T14:12:01.345Z,19.30
2022-10-03T14:14:40.820Z,19.30
2022-10-03T14:17:14.634Z,19.20
2022-10-03T14:19:56.997Z,19.30
2022-10-03T14:22:42.247Z,19.30
2022-10-03T14:25:29.608Z,18.90
2022-10-03T14:28:04.425Z,19.10
2022-10-03T14:31:04.472Z,18.80
2022-10-03T14:33:39.910Z,19.00
2022-10-03T14:36:23.548Z,19.10
2022-10-03T14:39:07.249Z,18.90
2022-10-03T14:41:48.325Z,18.70
2022-10-03T14:44:21.199Z,18.50
2022-10-03T14:46:55.154Z,18.50
2022-10-03T14:52:33.358Z,18.10
2022-10-03T14:55:12.610Z,18.10
2022-10-03T14:58:05.964Z,18.10
2022-10-03T15:00:42.882Z,18.00
2022-10-03T15:03:33.704Z,17.90
2022-10-03T15:06:20.225Z,17.90
2022-10-03T15:08:51.579Z,17.60
2022-10-03T15:11:27.952Z,17.70
2022-10-03T15:13:58.623Z,17.60
2022-10-03T15:16:27.467Z,17.50
2022-10-03T15:18:58.692Z,17.40
2022-10-03T15:21:28.292Z,17.40
2022-10-03T15:23:59.917Z,17.20
2022-10-03T15:26:34.724Z,17.20
2022-10-03T15:29:06.253Z,17.10
2022-10-03T15:31:37.064Z,17.10
2022-10-03T15:34:08.413Z,17.00
2022-10-03T15:36:39.774Z,17.00
2022-10-03T15:39:19.775Z,16.90
2022-10-03T15:41:55.362Z,16.70
2022-10-03T15:44:32.909Z,16.60
2022-10-03T15:47:05.511Z,16.50
2022-10-03T15:49:39.239Z,16.50
2022-10-03T15:52:16.070Z,16.40
2022-10-03T15:54:48.782Z,16.50
2022-10-03T15:57:26.522Z,16.50
2022-10-03T16:00:03.021Z,16.50
2022-10-03T16:02:40.178Z,16.40
2022-10-03T16:05:19.791Z,16.40
2022-10-03T16:07:58.296Z,16.40
2022-10-03T16:10:29.012Z,16.40
2022-10-03T16:13:04.640Z,16.30
2022-10-03T16:15:50.188Z,16.30
2022-10-03T16:18:42.847Z,16.10
2022-10-03T16:21:16.005Z,16.10
2022-10-03T16:23:46.326Z,16.10
2022-10-03T16:26:22.561Z,16.10
2022-10-03T16:28:57.265Z,16.10
2022-10-03T16:31:28.549Z,16.00
2022-10-03T16:34:03.373Z,16.00
2022-10-03T16:36:33.514Z,16.10
2022-10-03T16:39:04.314Z,16.10
2022-10-03T16:41:34.850Z,15.90
2022-10-03T16:44:08.737Z,15.70
2022-10-03T16:46:40.395Z,15.60
2022-10-03T16:49:29.982Z,15.40
2022-10-03T16:52:03.094Z,15.20
2022-10-03T16:54:33.359Z,15.00
2022-10-03T16:57:04.698Z,14.90
2022-10-03T16:59:35.353Z,14.80
2022-10-03T17:02:07.177Z,14.70
2022-10-03T17:04:39.097Z,14.70
2022-10-03T17:07:14.362Z,14.70
2022-10-03T17:09:46.479Z,14.60
2022-10-03T17:15:33.869Z,14.50
2022-10-03T17:18:16.827Z,14.50
2022-10-03T17:20:48.252Z,14.30
2022-10-03T17:23:25.129Z,14.20
2022-10-03T17:26:03.698Z,14.10
2022-10-03T17:28:41.367Z,13.90
2022-10-03T17:31:31.270Z,13.90
2022-10-03T17:34:05.972Z,13.80
2022-10-03T17:37:06.832Z,13.70
2022-10-03T17:39:54.652Z,13.60
2022-10-03T17:42:39.199Z,13.50
2022-10-03T17:45:30.599Z,13.60
2022-10-03T17:48:07.129Z,13.50
2022-10-03T17:50:40.406Z,13.50
2022-10-03T17:53:20.179Z,13.50
2022-10-03T17:55:52.049Z,13.40
2022-10-03T17:58:22.787Z,13.40
2022-10-03T18:01:06.810Z,13.40
2022-10-03T18:03:42.727Z,13.40
2022-10-03T18:06:36.143Z,13.50
2022-10-03T18:09:19.186Z,13.40
2022-10-03T18:11:50.182Z,13.40
2022-10-03T18:14:31.873Z,13.50
2022-10-03T18:17:08.252Z,13.40
2022-10-03T18:19:57.717Z,13.30
2022-10-03T18:22:37.155Z,13.30
2022-10-03T18:25:37.114Z,13.20
2022-10-03T18:28:14.068Z,13.10
2022-10-03T18:30:47.685Z,13.10
2022-10-03T18:33:19.420Z,13.10
2022-10-03T18:35:51.332Z,13.20
2022-10-03T18:38:22.763Z,13.20
2022-10-03T18:40:54.654Z,13.20
2022-10-03T18:43:33.855Z,13.20
2022-10-03T18:46:12.448Z,13.10
2022-10-03T18:49:09.126Z,13.10
2022-10-03T18:51:41.233Z,13.00
2022-10-03T18:54:25.354Z,12.90
2022-10-03T18:57:06.419Z,12.80
2022-10-03T18:59:45.049Z,12.80
2022-10-03T19:02:26.284Z,12.90
2022-10-03T19:04:57.722Z,12.80
2022-10-03T19:07:29.754Z,12.80
2022-10-03T19:10:27.517Z,12.80
2022-10-03T19:13:02.841Z,12.70
2022-10-03T19:15:43.815Z,12.70
2022-10-03T19:18:22.608Z,12.70
2022-10-03T19:20:54.319Z,12.60
2022-10-03T19:23:27.453Z,12.60
2022-10-03T19:25:58.302Z,12.60
2022-10-03T19:28:30.581Z,12.70
2022-10-03T19:31:03.512Z,12.70
2022-10-03T19:33:33.997Z,12.60
2022-10-03T19:36:05.831Z,12.50
2022-10-03T19:38:38.766Z,12.50
2022-10-03T19:41:14.774Z,12.40
2022-10-03T19:43:45.877Z,12.40
2022-10-03T19:46:38.187Z,12.60
2022-10-03T19:49:30.757Z,12.60
2022-10-03T19:52:15.618Z,12.40
2022-10-03T19:54:52.589Z,12.40
2022-10-03T19:57:25.519Z,12.30
2022-10-03T19:59:56.261Z,12.30
2022-10-03T20:02:26.725Z,12.30
2022-10-03T20:04:57.662Z,12.20
2022-10-03T20:07:45.407Z,12.10
2022-10-03T20:10:42.422Z,12.00
2022-10-03T20:13:11.694Z,12.00
2022-10-03T20:15:44.259Z,11.90
2022-10-03T20:18:24.333Z,11.80
2022-10-03T20:20:57.009Z,11.70
2022-10-03T20:23:28.743Z,11.80
2022-10-03T20:26:06.079Z,11.70
2022-10-03T20:29:12.016Z,11.50
2022-10-03T20:31:40.872Z,11.40
2022-10-03T20:34:14.798Z,11.40
2022-10-03T20:36:48.858Z,11.40
2022-10-03T20:39:22.036Z,11.40
2022-10-03T20:42:03.701Z,11.30
2022-10-03T20:44:56.075Z,11.30
2022-10-03T20:47:39.051Z,11.20
2022-10-03T20:50:14.555Z,11.10
2022-10-03T20:52:42.957Z,11.10
2022-10-03T20:55:20.784Z,11.10
2022-10-03T20:57:56.651Z,11.20
2022-10-03T21:00:25.919Z,11.10
2022-10-03T21:02:58.890Z,11.10
2022-10-03T21:05:31.526Z,11.20
2022-10-03T21:08:02.913Z,11.20
2022-10-03T21:10:34.764Z,11.10
2022-10-03T21:13:09.117Z,11.10
2022-10-03T21:15:44.179Z,11.00
2022-10-03T21:18:22.182Z,11.00
2022-10-03T21:20:59.688Z,11.00
2022-10-03T21:23:29.147Z,11.10
2022-10-03T21:26:01.429Z,11.20
2022-10-03T21:28:35.220Z,11.20
2022-10-03T21:31:28.383Z,11.10
2022-10-03T21:34:07.208Z,11.20
2022-10-03T21:36:40.278Z,11.20
2022-10-03T21:39:18.549Z,11.30
2022-10-03T21:42:01.180Z,11.20
2022-10-03T21:44:54.367Z,11.30
2022-10-03T21:47:34.817Z,11.20
2022-10-03T21:50:06.974Z,11.30
2022-10-03T21:52:48.448Z,11.20
2022-10-03T21:55:51.305Z,11.20
2022-10-03T21:58:40.356Z,11.30
2022-10-03T22:01:18.775Z,11.30
2022-10-03T22:03:53.370Z,11.20
2022-10-03T22:06:25.372Z,11.20
2022-10-03T22:08:54.475Z,11.20
2022-10-03T22:11:35.418Z,11.10
2022-10-03T22:14:14.162Z,11.00
2022-10-03T22:16:49.811Z,11.00
2022-10-03T22:19:22.921Z,11.00
2022-10-03T22:22:04.752Z,10.90
2022-10-03T22:24:44.749Z,11.00
2022-10-03T22:27:18.692Z,11.00
2022-10-03T22:29:54.825Z,11.10
2022-10-03T22:32:29.765Z,11.00
2022-10-03T22:35:08.119Z,11.00
2022-10-03T22:37:36.686Z,10.90
2022-10-03T22:40:06.183Z,10.90
2022-10-03T22:42:40.205Z,10.90
2022-10-03T22:45:10.754Z,10.90
2022-10-03T22:47:41.236Z,10.90
2022-10-03T22:50:14.355Z,10.80
2022-10-03T22:52:48.142Z,10.80
2022-10-03T22:55:20.072Z,10.70
2022-10-03T22:57:48.630Z,10.80
2022-10-03T23:00:18.362Z,10.70
2022-10-03T23:02:55.038Z,10.70
2022-10-03T23:05:41.499Z,10.50
2022-10-03T23:08:19.420Z,10.60
2022-10-03T23:10:54.821Z,10.60
2022-10-03T23:13:31.443Z,10.60
2022-10-03T23:16:17.604Z,10.60
2022-10-03T23:19:01.467Z,10.50
2022-10-03T23:21:30.176Z,10.60
2022-10-03T23:24:04.911Z,10.50
2022-10-03T23:27:07.922Z,10.50
2022-10-03T23:29:35.937Z,10.40
2022-10-03T23:32:05.923Z,10.50
2022-10-03T23:35:16.594Z,10.50
2022-10-03T23:37:46.298Z,10.40
2022-10-03T23:40:39.801Z,10.40
2022-10-03T23:43:36.868Z,10.40
2022-10-03T23:46:09.815Z,10.60
2022-10-03T23:48:45.350Z,10.70
2022-10-03T23:51:19.298Z,10.70
2022-10-03T23:53:51.371Z,10.60
2022-10-03T23:56:31.347Z,10.80
2022-10-03T23:59:12.078Z,10.70
